Klik op de webcam foto voor een grotere versieKlik op de webcam foto voor een grotere versie
Of klik hier voor
de webcam video


Bezoek onze andere website:Website of another weatherstation



Het weer levert geen direct gevaar op.    Er zijn geen waarschuwingen afgegeven.

Nabijgelegen vliegvelden - METAR rapporten

   
EBBR - Vaartkom-Leuven
Gewijzigd: 23-02-2018 17:20
Helder    Wind: ONO 20 km/h
Helder
Wind: Wind: ONO 20 km/h
Temperatuur: 2°C
Voelt als: -3°C
Dauwpunt: -9°C
Vochtigheid: 44%
Barometer: 1019 hPa
Zicht: meer dan 10 km
Bewolking: Helder
EBBR 231620Z 07011KT CAVOK 02/M09 Q1019 NOSIG
EBAW - Antwerp
Gewijzigd: 23-02-2018 17:20
Helder    Wind: ONO 28 km/h
Helder
Wind: Wind: ONO 28 km/h
Temperatuur: 3°C
Voelt als: -2°C
Dauwpunt: -8°C
Vochtigheid: 45%
Barometer: 1020 hPa
Zicht: meer dan 10 km
Bewolking: Helder
EBAW 231620Z 07015KT CAVOK 03/M08 Q1020 NOSIG
EBLG - Li├Ęge
Gewijzigd: 23-02-2018 17:20
Helder    Wind: ONO 22 km/h
Helder
Wind: Wind: ONO 22 km/h
Temperatuur: 2°C
Voelt als: -3°C
Dauwpunt: -10°C
Vochtigheid: 41%
Barometer: 1018 hPa
Zicht: meer dan 10 km
Bewolking: Helder
EBLG 231620Z 07012KT CAVOK 02/M10 Q1018 NOSIG
EBCV - Mons/Bergen
Gewijzigd: 23-02-2018 17:25
Helder    Wind: ONO 20 km/h
Helder
Wind: Wind: ONO 20 km/h
Temperatuur: 2°C
Voelt als: -3°C
Dauwpunt: -8°C
Vochtigheid: 48%
Barometer: 1018 hPa
Bewolking: Helder
Zicht: meer dan 10 km
Bewolking: Helder
EBCV 231625Z AUTO 07011KT 9999 NCD 02/M08 Q1018 BLU
EHBK - Maastricht
Gewijzigd: 23-02-2018 17:25
Helder    Wind: NO 22 km/h
Helder
Wind: Wind: NO 22 km/h
Temperatuur: 2°C
Voelt als: -3°C
Dauwpunt: -7°C
Vochtigheid: 52%
Barometer: 1019 hPa
Bewolking: Helder
Zicht: meer dan 10 km
Bewolking: Helder
EHBK 231625Z AUTO 05012KT 020V080 9999 NCD 02/M07 Q1019 NOSIG
ELLX - Luxemburg
Gewijzigd: 23-02-2018 17:20
Helder    Wind: ONO 28 km/h
Helder
Wind: Wind: ONO 28 km/h
Temperatuur: 1°C
Voelt als: -5°C
Dauwpunt: -11°C
Vochtigheid: 41%
Barometer: 1015 hPa
Zicht: meer dan 10 km
Bewolking: Helder
ELLX 231620Z 06015KT CAVOK 01/M11 Q1015 NOSIG
EBOS - Oostende
Gewijzigd: 23-02-2018 17:20
Helder    Wind: ONO 24 km/h
Helder
Wind: Wind: ONO 24 km/h
Temperatuur: 2°C
Voelt als: -3°C
Dauwpunt: -5°C
Vochtigheid: 60%
Barometer: 1019 hPa
Zicht: meer dan 10 km
Bewolking: Helder
EBOS 231620Z 07013KT CAVOK 02/M05 Q1019 NOSIG
  

Script ontwikkeld door  Saratoga-weather.org Aangepast voor de template door  Weerstation Leuven

U vindt ons ook hier:

UK Metoffice

WeatherCloud

European Weather Network

Weather Underground

Bernelux Weather Network

AWEKAS

WeatherlinkIP

Citizen Weather Observer Program (CWOP)

Apparatuur in gebruik:

Weer-station
Davis VUE

Weer-programma
Meteobridge

Webleverancier
Robohost

Davis VUE

Meteobridge

Robohost